Time;durP1;ratioP1;P1;durP2;ratioP2;P2;SDS_P1;SDS_P2;PMS_P1;PMS_P2;Temp;Humidity;BMP_temperature;BMP_pressure;BME280_temperature;BME280_humidity;BME280_pressure;Samples;Min_cycle;Max_cycle;Signal;HPM_P1;HPM_P2
2021/03/03 00:00:09;;;;;;;10.68;3.85;;;;;;;9.74;68.82;101858.78;5032037;28;20120;-66
2021/03/03 00:02:36;;;;;;;11.68;3.38;;;;;;;9.74;68.85;101867.59;5032514;28;20679;-66
2021/03/03 00:05:03;;;;;;;17.58;5.00;;;;;;;9.81;69.18;101859.06;5014816;28;20053;-66
2021/03/03 00:07:30;;;;;;;11.50;3.42;;;;;;;9.89;69.22;101867.28;5031925;28;20129;-66
2021/03/03 00:09:59;;;;;;;12.70;4.13;;;;;;;9.89;69.94;101870.81;5013984;28;20459;-66
2021/03/03 00:12:26;;;;;;;10.63;3.78;;;;;;;9.93;69.81;101861.25;5032562;28;20132;-65
2021/03/03 00:14:53;;;;;;;10.27;3.22;;;;;;;9.95;69.27;101856.94;5031688;28;20505;-65
2021/03/03 00:17:20;;;;;;;8.30;3.63;;;;;;;9.94;68.47;101845.47;5032588;28;20068;-65
2021/03/03 00:19:47;;;;;;;12.63;4.07;;;;;;;9.94;67.56;101841.94;5032397;28;20041;-66
2021/03/03 00:22:15;;;;;;;9.15;3.15;;;;;;;9.95;66.24;101820.91;5031624;28;20037;-66
2021/03/03 00:24:42;;;;;;;13.60;4.32;;;;;;;9.75;67.59;101834.22;5032440;28;20034;-69
2021/03/03 00:27:11;;;;;;;17.98;3.88;;;;;;;9.63;71.17;101849.59;5012920;28;20062;-68
2021/03/03 00:29:38;;;;;;;14.50;4.68;;;;;;;9.59;72.38;101838.03;5032193;28;20069;-67
2021/03/03 00:32:05;;;;;;;19.30;6.72;;;;;;;9.51;73.23;101858.84;5031443;28;20060;-66
2021/03/03 00:34:32;;;;;;;24.27;6.35;;;;;;;9.48;73.11;101850.81;5031387;28;20072;-67
2021/03/03 00:36:59;;;;;;;14.55;5.13;;;;;;;9.39;72.93;101847.84;5019984;28;20034;-67
2021/03/03 00:39:27;;;;;;;10.88;4.30;;;;;;;9.33;73.20;101855.50;5012150;28;20041;-66
2021/03/03 00:41:54;;;;;;;8.85;4.57;;;;;;;9.33;72.60;101851.97;5013987;28;20517;-67
2021/03/03 00:44:22;;;;;;;8.73;4.18;;;;;;;9.29;72.29;101821.09;5032010;28;20502;-65
2021/03/03 00:46:49;;;;;;;9.52;4.55;;;;;;;9.20;72.15;101848.88;5031594;28;20502;-66
2021/03/03 00:49:16;;;;;;;6.90;3.35;;;;;;;9.18;71.67;101841.78;5032049;28;20140;-66
2021/03/03 00:51:43;;;;;;;11.13;5.45;;;;;;;9.16;71.32;101831.16;5031499;28;20137;-66
2021/03/03 00:54:10;;;;;;;7.15;4.03;;;;;;;9.17;71.12;101829.44;5031162;28;20674;-66
2021/03/03 00:56:38;;;;;;;7.18;3.70;;;;;;;9.18;70.86;101818.06;5031555;28;20541;-66
2021/03/03 00:59:05;;;;;;;11.07;3.88;;;;;;;9.19;70.79;101814.56;5030729;28;20045;-66
2021/03/03 01:01:33;;;;;;;9.55;5.32;;;;;;;9.26;70.78;101818.31;5031569;28;20088;-66
2021/03/03 01:04:00;;;;;;;16.90;9.15;;;;;;;9.24;71.18;101815.66;5031211;28;20092;-66
2021/03/03 01:06:27;;;;;;;17.08;8.00;;;;;;;9.27;71.48;101805.22;5031368;28;20089;-65
2021/03/03 01:08:54;;;;;;;11.00;5.10;;;;;;;9.28;71.82;101809.66;5015411;28;20037;-66
2021/03/03 01:11:21;;;;;;;15.00;8.32;;;;;;;9.32;71.55;101798.38;5031723;28;20050;-66
2021/03/03 01:13:47;;;;;;;13.43;4.55;;;;;;;9.33;71.06;101786.09;5031252;28;20037;-66
2021/03/03 01:16:14;;;;;;;18.65;6.28;;;;;;;9.33;71.14;101797.53;5031381;28;20041;-66
2021/03/03 01:18:43;;;;;;;17.58;5.47;;;;;;;9.36;71.13;101788.84;5030980;28;20052;-66
2021/03/03 01:21:10;;;;;;;12.00;4.10;;;;;;;9.41;71.13;101779.38;5030190;28;20137;-65
2021/03/03 01:23:36;;;;;;;10.68;4.57;;;;;;;9.52;70.67;101778.91;5030499;28;20065;-65
2021/03/03 01:26:03;;;;;;;12.85;5.38;;;;;;;9.54;70.54;101755.25;5030444;28;20067;-65
2021/03/03 01:28:31;;;;;;;15.73;3.90;;;;;;;9.51;69.94;101756.06;5031037;28;20044;-65
2021/03/03 01:30:57;;;;;;;11.07;3.40;;;;;;;9.49;69.53;101741.94;5030261;28;20518;-66
2021/03/03 01:33:26;;;;;;;17.77;6.05;;;;;;;9.53;69.57;101762.28;5030773;28;20611;-65
2021/03/03 01:35:54;;;;;;;11.18;2.70;;;;;;;9.58;69.30;101770.38;5030270;28;20562;-66
2021/03/03 01:38:22;;;;;;;7.22;2.80;;;;;;;9.56;69.06;101769.41;5030260;28;20165;-66
2021/03/03 01:40:49;;;;;;;10.30;2.88;;;;;;;9.56;68.63;101758.84;5030063;28;20053;-65
2021/03/03 01:43:17;;;;;;;9.13;3.70;;;;;;;9.57;68.58;101769.47;5030756;28;20120;-66
2021/03/03 01:45:44;;;;;;;8.32;2.63;;;;;;;9.57;68.79;101773.84;5030820;28;20029;-65
2021/03/03 01:48:12;;;;;;;7.32;2.30;;;;;;;9.58;68.91;101759.81;5029907;28;20589;-65
2021/03/03 01:50:39;;;;;;;4.07;1.65;;;;;;;9.57;68.73;101756.28;5030685;28;20132;-65
2021/03/03 01:53:08;;;;;;;6.22;1.80;;;;;;;9.57;68.39;101764.19;5012032;28;20046;-65
2021/03/03 01:55:36;;;;;;;3.85;1.13;;;;;;;9.49;67.83;101757.75;5030053;28;20072;-65
2021/03/03 01:58:04;;;;;;;4.85;1.45;;;;;;;9.41;67.24;101776.75;5011643;28;20037;-66
2021/03/03 02:00:31;;;;;;;6.60;1.70;;;;;;;9.30;67.55;101780.72;5030306;28;20037;-66
2021/03/03 02:02:58;;;;;;;4.80;1.92;;;;;;;9.30;68.12;101770.19;5029722;28;20558;-66
2021/03/03 02:05:26;;;;;;;6.28;2.40;;;;;;;9.28;68.50;101764.84;5030238;28;20048;-66
2021/03/03 02:07:59;;;;;;;7.43;3.28;;;;;;;9.29;68.40;101757.84;5029745;28;20053;-67
2021/03/03 02:10:38;;;;;;;15.43;3.50;;;;;;;9.21;68.84;101749.66;5029928;28;20532;-66
2021/03/03 02:13:09;;;;;;;5.78;2.85;;;;;;;9.27;68.75;101741.09;5029537;28;20065;-66
2021/03/03 02:15:38;;;;;;;7.25;2.25;;;;;;;9.30;68.95;101749.13;5029926;28;20037;-66
2021/03/03 02:18:07;;;;;;;10.43;5.00;;;;;;;9.27;69.07;101736.72;5029435;28;20436;-66
2021/03/03 02:20:47;;;;;;;8.13;2.95;;;;;;;9.26;69.31;101734.91;5030140;28;20034;-66
2021/03/03 02:23:19;;;;;;;8.13;2.75;;;;;;;9.31;69.42;101740.38;5010171;28;20041;-66
2021/03/03 02:25:48;;;;;;;9.82;3.13;;;;;;;9.36;69.53;101749.34;5010461;28;20560;-66
2021/03/03 02:28:15;;;;;;;6.70;1.67;;;;;;;9.32;69.60;101747.44;5010010;28;20148;-66
2021/03/03 02:30:45;;;;;;;10.38;3.10;;;;;;;9.32;69.74;101747.44;5027219;28;20562;-65
2021/03/03 02:33:17;;;;;;;7.80;2.53;;;;;;;9.32;69.56;101768.53;5029618;28;20037;-65
2021/03/03 02:35:47;;;;;;;7.32;2.38;;;;;;;9.27;69.23;101768.31;5030435;28;20030;-66
2021/03/03 02:38:14;;;;;;;7.97;3.88;;;;;;;9.31;68.96;101761.44;5029589;28;20061;-66
2021/03/03 02:40:43;;;;;;;5.47;2.30;;;;;;;9.32;68.89;101757.97;5029851;28;20478;-66
2021/03/03 02:43:14;;;;;;;8.63;4.22;;;;;;;9.34;68.78;101730.81;5011511;28;20165;-66
2021/03/03 02:45:42;;;;;;;6.47;2.35;;;;;;;9.33;68.47;101729.03;5029784;28;20052;-66
2021/03/03 02:48:11;;;;;;;7.03;2.58;;;;;;;9.32;68.62;101724.59;5029402;28;20117;-65
2021/03/03 02:50:38;;;;;;;8.02;2.65;;;;;;;9.34;68.57;101719.38;5029500;28;20121;-65
2021/03/03 02:53:05;;;;;;;18.35;3.13;;;;;;;9.37;69.17;101719.50;5029150;28;20046;-66
2021/03/03 02:55:33;;;;;;;9.50;3.08;;;;;;;9.43;69.06;101719.72;5029640;28;20044;-66
2021/03/03 02:58:01;;;;;;;28.00;4.43;;;;;;;9.48;68.98;101734.84;5029001;28;20040;-65
2021/03/03 03:00:31;;;;;;;9.20;3.42;;;;;;;9.58;68.98;101710.59;5028880;28;20143;-65
2021/03/03 03:03:10;;;;;;;7.88;2.40;;;;;;;9.73;67.87;101701.44;5028851;28;20525;-65
2021/03/03 03:05:39;;;;;;;8.80;2.42;;;;;;;9.83;66.57;101686.00;5029695;28;20042;-66
2021/03/03 03:08:09;;;;;;;14.02;2.97;;;;;;;9.90;66.13;101685.34;5029046;28;20489;-66
2021/03/03 03:10:38;;;;;;;11.20;2.97;;;;;;;9.34;68.75;101699.22;5029617;28;20464;-68
2021/03/03 03:13:08;;;;;;;11.95;3.05;;;;;;;9.00;73.23;101704.97;5029024;28;20113;-67
2021/03/03 03:15:38;;;;;;;11.35;3.20;;;;;;;8.90;74.53;101721.31;5029776;28;20521;-67
2021/03/03 03:18:10;;;;;;;13.35;4.43;;;;;;;8.85;74.87;101732.50;5029140;28;20384;-67
2021/03/03 03:20:40;;;;;;;18.65;6.30;;;;;;;8.84;74.78;101730.69;5029672;28;20034;-67
2021/03/03 03:23:07;;;;;;;15.10;5.55;;;;;;;8.85;74.68;101714.06;5015119;28;20691;-67
2021/03/03 03:25:36;;;;;;;18.48;5.13;;;;;;;8.92;74.64;101718.72;5033465;28;20079;-66
2021/03/03 03:28:03;;;;;;;10.10;4.70;;;;;;;8.94;74.67;101711.75;5032855;28;20443;-66
2021/03/03 03:30:32;;;;;;;15.90;7.00;;;;;;;8.97;74.71;101704.00;5033203;28;20041;-65
2021/03/03 03:33:01;;;;;;;10.68;4.53;;;;;;;9.00;74.66;101701.44;5032433;28;20042;-65
2021/03/03 03:35:29;;;;;;;15.45;6.07;;;;;;;9.00;74.83;101712.88;5032480;28;20421;-65
2021/03/03 03:37:57;;;;;;;14.85;4.55;;;;;;;9.01;74.50;101717.31;5032156;28;20037;-65
2021/03/03 03:40:24;;;;;;;12.75;2.97;;;;;;;8.99;74.10;101719.00;5033158;28;20398;-65
2021/03/03 03:42:55;;;;;;;19.45;3.13;;;;;;;8.91;73.61;101731.00;5032868;28;20042;-65
2021/03/03 03:45:24;;;;;;;8.30;2.15;;;;;;;8.72;73.93;101741.66;5032976;28;20128;-66
2021/03/03 03:47:52;;;;;;;8.68;2.00;;;;;;;8.48;74.98;101744.22;5032208;28;20371;-67
2021/03/03 03:50:22;;;;;;;6.60;2.15;;;;;;;8.41;76.60;101744.81;5032964;28;20117;-65
2021/03/03 03:52:53;;;;;;;11.05;3.10;;;;;;;8.57;76.80;101749.84;5032740;28;20048;-66
2021/03/03 03:55:20;;;;;;;12.13;4.60;;;;;;;8.56;76.37;101748.06;5032042;28;20501;-66
2021/03/03 03:57:49;;;;;;;14.15;8.45;;;;;;;8.53;76.23;101745.31;5015277;28;20056;-66
2021/03/03 04:00:19;;;;;;;13.68;6.90;;;;;;;8.61;76.15;101733.34;5032645;28;20490;-66
2021/03/03 04:02:46;;;;;;;11.05;3.72;;;;;;;8.57;76.07;101746.31;5033096;28;20088;-66
2021/03/03 04:05:15;;;;;;;8.30;2.80;;;;;;;8.54;76.29;101723.41;5032367;28;20125;-66
2021/03/03 04:07:43;;;;;;;11.13;4.63;;;;;;;8.54;76.35;101725.13;5032089;28;20120;-66
2021/03/03 04:10:12;;;;;;;13.70;3.25;;;;;;;8.61;76.03;101711.38;5030902;28;20045;-65
2021/03/03 04:12:39;;;;;;;11.63;2.65;;;;;;;8.63;75.87;101705.34;5032130;28;20497;-65
2021/03/03 04:15:08;;;;;;;10.95;3.35;;;;;;;8.72;75.73;101707.44;5031740;28;20069;-65
2021/03/03 04:17:35;;;;;;;9.98;2.88;;;;;;;8.82;75.65;101690.25;5014812;28;20041;-65
2021/03/03 04:20:04;;;;;;;17.52;3.40;;;;;;;8.89;75.81;101681.75;5031631;28;20053;-63
2021/03/03 04:22:32;;;;;;;11.85;4.25;;;;;;;8.94;76.08;101691.59;5032308;28;20120;-64
2021/03/03 04:25:00;;;;;;;14.18;3.60;;;;;;;9.04;76.05;101706.00;5031166;28;20045;-65
2021/03/03 04:27:27;;;;;;;10.70;3.20;;;;;;;9.07;75.93;101696.47;5031543;28;20065;-64
2021/03/03 04:29:54;;;;;;;14.70;3.63;;;;;;;9.14;75.72;101673.88;5031734;28;20029;-64
2021/03/03 04:32:21;;;;;;;14.65;3.50;;;;;;;9.17;75.49;101679.28;5031771;28;20486;-64
2021/03/03 04:34:49;;;;;;;15.52;4.68;;;;;;;9.14;75.46;101693.22;5031542;28;20044;-64
2021/03/03 04:37:17;;;;;;;13.65;4.32;;;;;;;9.17;74.46;101692.44;5031978;28;20124;-64
2021/03/03 04:39:44;;;;;;;7.18;2.40;;;;;;;9.12;72.25;101697.53;5031264;28;20048;-64
2021/03/03 04:42:12;;;;;;;15.60;5.05;;;;;;;9.22;72.00;101708.41;5031620;28;20056;-64
2021/03/03 04:44:39;;;;;;;13.82;3.28;;;;;;;9.27;71.99;101697.19;5031687;28;20060;-64
2021/03/03 04:47:06;;;;;;;15.15;3.53;;;;;;;9.37;72.37;101696.69;5031358;28;20045;-64
2021/03/03 04:49:33;;;;;;;12.07;4.05;;;;;;;9.37;72.37;101704.59;5031905;28;20116;-63
2021/03/03 04:52:00;;;;;;;16.17;3.63;;;;;;;9.38;72.50;101706.41;5031262;28;20490;-64
2021/03/03 04:54:27;;;;;;;15.18;3.20;;;;;;;9.32;72.75;101718.47;5031511;28;20065;-64
2021/03/03 04:56:54;;;;;;;17.42;4.47;;;;;;;9.33;72.64;101720.22;5013733;28;20529;-64
2021/03/03 04:59:22;;;;;;;19.38;7.47;;;;;;;9.41;72.38;101718.78;5031313;28;20510;-63
2021/03/03 05:01:49;;;;;;;13.30;4.97;;;;;;;9.45;72.00;101716.28;5031412;28;20441;-63
2021/03/03 05:04:16;;;;;;;13.32;5.10;;;;;;;9.48;70.77;101708.50;5031104;28;20124;-64
2021/03/03 05:06:43;;;;;;;12.07;3.88;;;;;;;9.59;69.81;101722.94;5031110;28;20042;-64
2021/03/03 05:09:10;;;;;;;8.57;2.78;;;;;;;9.71;70.10;101705.78;5030433;28;20112;-64
2021/03/03 05:11:37;;;;;;;7.05;2.92;;;;;;;9.77;69.72;101705.97;5031524;28;20516;-64
2021/03/03 05:14:04;;;;;;;11.70;6.18;;;;;;;9.83;69.53;101724.66;5030074;28;20099;-64
2021/03/03 05:16:32;;;;;;;13.30;3.00;;;;;;;9.84;69.35;101715.91;5031427;28;20120;-64
2021/03/03 05:18:59;;;;;;;9.52;4.05;;;;;;;9.83;68.63;101717.63;5030911;28;20132;-64
2021/03/03 05:21:26;;;;;;;12.13;4.95;;;;;;;9.91;68.07;101736.38;5031230;28;20061;-64
2021/03/03 05:23:53;;;;;;;9.27;3.90;;;;;;;10.00;67.10;101721.72;5030537;28;20049;-64
2021/03/03 05:26:19;;;;;;;7.45;3.17;;;;;;;10.06;65.43;101705.19;5030955;28;20037;-64
2021/03/03 05:28:47;;;;;;;10.23;4.28;;;;;;;10.04;64.93;101711.28;5030750;28;20517;-64
2021/03/03 05:31:14;;;;;;;8.65;2.70;;;;;;;10.07;64.57;101743.03;5030313;28;20364;-64
2021/03/03 05:33:43;;;;;;;8.88;4.03;;;;;;;10.09;64.09;101744.88;5030610;28;20056;-64
2021/03/03 05:36:11;;;;;;;9.52;3.55;;;;;;;10.14;63.20;101739.75;5030481;28;20043;-64
2021/03/03 05:38:40;;;;;;;12.02;4.03;;;;;;;10.23;62.27;101741.00;5030800;28;20056;-64
2021/03/03 05:41:08;;;;;;;10.82;4.38;;;;;;;10.34;61.67;101759.81;5030023;28;20564;-64
2021/03/03 05:43:36;;;;;;;11.35;5.28;;;;;;;10.38;61.57;101751.13;5030811;28;20121;-64
2021/03/03 05:46:04;;;;;;;14.77;3.95;;;;;;;10.33;61.79;101774.75;5030284;28;20125;-65
2021/03/03 05:48:33;;;;;;;9.70;3.28;;;;;;;10.35;61.68;101757.22;5030551;28;20521;-64
2021/03/03 05:51:03;;;;;;;10.10;4.72;;;;;;;10.47;61.65;101755.81;5029915;28;20065;-65
2021/03/03 05:53:31;;;;;;;10.85;4.38;;;;;;;10.60;61.19;101758.00;5030497;28;20033;-64
2021/03/03 05:55:59;;;;;;;8.65;3.65;;;;;;;10.68;61.86;101770.59;5029910;28;20045;-65
2021/03/03 05:58:29;;;;;;;10.27;2.90;;;;;;;10.72;63.31;101776.84;5030362;28;20057;-64
2021/03/03 06:00:56;;;;;;;10.10;4.85;;;;;;;10.78;63.74;101762.09;5029764;28;20079;-65
2021/03/03 06:03:24;;;;;;;8.70;3.28;;;;;;;10.84;63.59;101752.56;5029623;28;20049;-64
2021/03/03 06:05:52;;;;;;;8.23;2.35;;;;;;;10.93;62.62;101756.38;5030270;28;20043;-65
2021/03/03 06:08:21;;;;;;;11.15;3.95;;;;;;;10.99;61.90;101759.22;5030469;28;20040;-65
2021/03/03 06:10:49;;;;;;;14.48;4.45;;;;;;;10.99;62.27;101760.97;5030601;28;20564;-65
2021/03/03 06:13:16;;;;;;;12.98;3.42;;;;;;;11.11;62.36;101769.25;5029433;28;20041;-64
2021/03/03 06:15:44;;;;;;;13.60;3.92;;;;;;;11.30;62.13;101786.53;5010373;28;20364;-64
2021/03/03 06:18:12;;;;;;;9.73;3.97;;;;;;;11.36;61.90;101790.25;5021198;28;20076;-65
2021/03/03 06:20:40;;;;;;;12.85;4.35;;;;;;;11.38;60.43;101785.00;5029344;28;20044;-65
2021/03/03 06:23:15;;;;;;;14.27;4.38;;;;;;;11.39;59.83;101778.88;5029017;28;20091;-65
2021/03/03 06:25:44;;;;;;;11.38;3.53;;;;;;;11.34;59.60;101784.03;5029633;28;20040;-65
2021/03/03 06:28:11;;;;;;;10.57;3.80;;;;;;;11.35;59.02;101793.78;5027143;28;20445;-65
2021/03/03 06:30:38;;;;;;;10.68;3.70;;;;;;;11.51;58.72;101787.16;5029431;28;20057;-65
2021/03/03 06:33:08;;;;;;;12.00;4.10;;;;;;;11.69;58.31;101798.22;5028256;28;20124;-65
2021/03/03 06:35:41;;;;;;;8.80;2.95;;;;;;;11.73;58.13;101800.13;5027798;28;20047;-65
2021/03/03 06:38:10;;;;;;;6.63;3.55;;;;;;;11.77;57.99;101799.38;5029171;28;20026;-65
2021/03/03 06:40:51;;;;;;;16.83;4.18;;;;;;;11.84;57.48;101804.00;5029872;28;20033;-65
2021/03/03 06:43:21;;;;;;;9.40;3.10;;;;;;;11.77;58.15;101793.19;5028577;28;20580;-65
2021/03/03 06:45:48;;;;;;;10.05;4.38;;;;;;;11.35;60.45;101808.72;5029992;28;20112;-65
2021/03/03 06:48:33;;;;;;;13.23;3.60;;;;;;;11.17;61.54;101804.69;5028410;28;20042;-65
2021/03/03 06:51:00;;;;;;;9.63;3.83;;;;;;;11.24;62.05;101815.44;5028642;28;20064;-66
2021/03/03 06:53:33;;;;;;;10.60;3.13;;;;;;;11.40;61.82;101815.03;5029311;28;20087;-65
2021/03/03 06:56:02;;;;;;;15.00;5.03;;;;;;;11.52;60.87;101816.28;5028194;28;20033;-65
2021/03/03 06:58:30;;;;;;;7.65;3.88;;;;;;;11.59;59.70;101820.91;5029344;28;20052;-65
2021/03/03 07:00:58;;;;;;;9.32;4.50;;;;;;;11.62;60.14;101837.72;5029402;28;20125;-66
2021/03/03 07:03:27;;;;;;;11.25;3.80;;;;;;;11.55;60.98;101841.94;5029728;28;20056;-64
2021/03/03 07:05:54;;;;;;;12.32;3.92;;;;;;;11.45;61.28;101826.63;5028734;28;20037;-65
2021/03/03 07:08:22;;;;;;;11.23;4.97;;;;;;;11.37;61.78;101821.13;5029761;28;20087;-65
2021/03/03 07:10:49;;;;;;;12.90;6.35;;;;;;;11.37;61.86;101802.63;5029253;28;20579;-65
2021/03/03 07:13:18;;;;;;;21.90;8.15;;;;;;;11.54;61.52;101824.28;5029232;28;20038;-65
2021/03/03 07:15:45;;;;;;;12.25;6.40;;;;;;;11.63;60.78;101824.50;5048389;28;20129;-65
2021/03/03 07:18:35;;;;;;;18.27;8.30;;;;;;;11.82;60.44;101815.38;5032288;28;20116;-66
2021/03/03 07:21:03;;;;;;;15.93;6.85;;;;;;;12.02;59.62;101835.31;5028124;28;20128;-66
2021/03/03 07:23:44;;;;;;;15.95;5.32;;;;;;;12.30;58.31;101831.66;5029363;28;20029;-65
2021/03/03 07:26:14;;;;;;;13.60;4.57;;;;;;;12.35;58.53;101845.91;5029133;28;20037;-66
2021/03/03 07:28:42;;;;;;;19.23;6.45;;;;;;;12.39;58.86;101839.84;5028900;28;20091;-65
2021/03/03 07:31:11;;;;;;;15.55;7.82;;;;;;;12.49;59.05;101848.91;5010007;28;22705;-66
2021/03/03 07:33:39;;;;;;;18.20;6.82;;;;;;;12.55;59.35;101857.00;5027560;28;20056;-66
2021/03/03 07:36:08;;;;;;;13.50;6.50;;;;;;;12.61;59.12;101855.41;5026830;28;20482;-66
2021/03/03 07:38:39;;;;;;;14.50;4.75;;;;;;;12.58;59.03;101860.66;5029336;28;20065;-66
2021/03/03 07:41:08;;;;;;;14.88;5.20;;;;;;;12.42;59.28;101850.50;5028790;28;20103;-66
2021/03/03 07:43:36;;;;;;;13.23;4.70;;;;;;;12.32;59.38;101862.63;5029557;28;20049;-65
2021/03/03 07:46:08;;;;;;;17.55;6.28;;;;;;;12.29;59.80;101864.28;5028417;28;20176;-66
2021/03/03 07:48:36;;;;;;;14.35;6.90;;;;;;;12.21;60.41;101868.47;5028713;28;20560;-65
2021/03/03 07:51:08;;;;;;;19.35;6.00;;;;;;;12.18;60.78;101866.66;5028815;28;20120;-65
2021/03/03 07:53:39;;;;;;;13.80;6.18;;;;;;;12.24;60.72;101861.53;5010829;28;20117;-64
2021/03/03 07:56:09;;;;;;;9.57;4.72;;;;;;;12.34;58.71;101870.59;5028152;28;20494;-65
2021/03/03 07:58:37;;;;;;;11.05;4.72;;;;;;;12.42;56.56;101857.56;5029054;28;20033;-66
2021/03/03 08:01:10;;;;;;;9.95;4.18;;;;;;;12.50;55.74;101869.25;5028666;28;20129;-65
2021/03/03 08:03:44;;;;;;;13.90;5.78;;;;;;;12.64;55.77;101855.50;5028594;28;20444;-65
2021/03/03 08:06:37;;;;;;;15.68;4.85;;;;;;;12.75;55.74;101864.59;5028803;28;20048;-66
2021/03/03 08:09:22;;;;;;;10.88;5.28;;;;;;;12.76;55.25;101865.50;5030580;28;20564;-64
2021/03/03 08:12:03;;;;;;;10.27;4.35;;;;;;;12.70;55.58;101874.19;5033000;28;20034;-66
2021/03/03 08:14:32;;;;;;;9.65;4.32;;;;;;;12.60;56.57;101872.16;5031872;28;20048;-66
2021/03/03 08:17:02;;;;;;;11.88;4.88;;;;;;;12.66;57.16;101874.09;5031469;28;20025;-66
2021/03/03 08:19:52;;;;;;;10.73;3.42;;;;;;;12.78;57.28;101869.09;5032146;28;20128;-66
2021/03/03 08:22:21;;;;;;;12.75;4.68;;;;;;;12.85;57.03;101888.69;5032011;28;20103;-66
2021/03/03 08:24:48;;;;;;;15.23;5.50;;;;;;;12.92;55.05;101882.66;5023458;28;20049;-66
2021/03/03 08:27:37;;;;;;;8.18;3.95;;;;;;;13.12;53.82;101876.09;5031960;28;20048;-66
2021/03/03 08:30:13;;;;;;;11.65;5.07;;;;;;;13.30;54.18;101876.53;5031258;28;20490;-66
2021/03/03 08:32:41;;;;;;;13.15;4.40;;;;;;;13.31;54.27;101882.75;5031566;28;20045;-66
2021/03/03 08:35:09;;;;;;;14.80;5.50;;;;;;;13.31;54.63;101878.34;5030502;28;20132;-66
2021/03/03 08:37:38;;;;;;;12.93;3.78;;;;;;;13.40;54.80;101880.25;5031597;28;20037;-66
2021/03/03 08:40:27;;;;;;;15.23;4.68;;;;;;;13.45;54.44;101882.19;5030110;28;20046;-66
2021/03/03 08:42:54;;;;;;;18.23;7.82;;;;;;;13.35;54.30;101866.00;5031565;28;20106;-67
2021/03/03 08:45:29;;;;;;;12.20;5.07;;;;;;;13.36;53.93;101889.03;5032223;28;20037;-66
2021/03/03 08:47:59;;;;;;;18.05;5.43;;;;;;;13.32;54.20;101885.44;5031530;28;20037;-67
2021/03/03 08:50:44;;;;;;;19.52;6.10;;;;;;;13.28;55.03;101883.53;5031909;28;20049;-66
2021/03/03 08:53:49;;;;;;;12.35;4.28;;;;;;;13.23;55.05;101889.63;5031383;28;20099;-66
2021/03/03 08:56:36;;;;;;;17.85;5.60;;;;;;;13.31;54.40;101873.03;5031294;28;20125;-66
2021/03/03 08:59:05;;;;;;;9.23;3.67;;;;;;;13.37;54.15;101875.81;5030671;28;20482;-66
2021/03/03 09:01:54;;;;;;;12.23;4.38;;;;;;;13.37;53.29;101881.13;5031941;28;20033;-66
2021/03/03 09:04:25;;;;;;;10.15;4.78;;;;;;;13.51;53.46;101889.38;5031123;28;20038;-66
2021/03/03 09:06:53;;;;;;;11.90;4.22;;;;;;;13.66;53.28;101881.72;5031162;28;20068;-67
2021/03/03 09:09:21;;;;;;;17.63;5.57;;;;;;;13.67;53.37;101883.50;5031164;28;20437;-66
2021/03/03 09:11:48;;;;;;;19.15;5.43;;;;;;;13.67;53.75;101886.16;5031684;28;20025;-66
2021/03/03 09:14:20;;;;;;;12.88;5.47;;;;;;;13.78;53.90;101879.34;5030905;28;20128;-66
2021/03/03 09:16:55;;;;;;;13.20;4.40;;;;;;;14.08;53.46;101889.66;5031427;28;20064;-66
2021/03/03 09:19:24;;;;;;;14.35;4.85;;;;;;;14.08;52.97;101876.38;5030658;28;20069;-66
2021/03/03 09:21:52;;;;;;;13.38;4.82;;;;;;;14.07;53.23;101892.28;5030966;28;20547;-67
2021/03/03 09:24:19;;;;;;;15.20;4.68;;;;;;;13.97;53.69;101896.53;5031183;28;20128;-66
2021/03/03 09:26:46;;;;;;;20.90;5.88;;;;;;;13.84;54.15;101887.44;5031329;28;20060;-67
2021/03/03 09:29:30;;;;;;;12.38;4.97;;;;;;;13.95;54.01;101904.47;5030875;28;20068;-67
2021/03/03 09:31:59;;;;;;;17.08;5.20;;;;;;;14.16;53.58;101879.19;5030494;28;20405;-67
2021/03/03 09:34:27;;;;;;;8.55;3.22;;;;;;;14.50;52.95;101888.72;5030170;28;20037;-66
2021/03/03 09:36:57;;;;;;;13.43;4.50;;;;;;;14.79;52.15;101876.78;5029624;28;20451;-66
2021/03/03 09:39:24;;;;;;;7.95;3.08;;;;;;;14.85;51.90;101894.59;5030652;28;20741;-67
2021/03/03 09:41:59;;;;;;;11.82;4.32;;;;;;;14.76;51.53;101887.41;5030241;28;20105;-67
2021/03/03 09:44:26;;;;;;;13.02;3.60;;;;;;;14.69;51.41;101894.38;5028784;28;20671;-66
2021/03/03 09:46:57;;;;;;;13.73;6.35;;;;;;;14.79;50.55;101895.41;5030192;28;20666;-67
2021/03/03 09:49:30;;;;;;;19.95;9.02;;;;;;;14.84;50.14;101907.00;5020872;28;20045;-66
2021/03/03 09:51:59;;;;;;;16.98;5.57;;;;;;;14.77;50.60;101894.47;5027569;28;20042;-67
2021/03/03 09:54:27;;;;;;;16.27;5.38;;;;;;;14.61;50.28;101900.41;5031734;28;20124;-67
2021/03/03 09:56:54;;;;;;;15.45;5.93;;;;;;;14.56;50.29;101902.09;5026912;28;20061;-67
2021/03/03 09:59:22;;;;;;;15.90;7.90;;;;;;;14.68;50.10;101900.56;5027489;28;20038;-66
2021/03/03 10:01:50;;;;;;;14.10;4.22;;;;;;;14.94;49.96;101895.66;5029911;28;20115;-66
2021/03/03 10:04:17;;;;;;;11.50;5.22;;;;;;;14.92;50.45;101897.41;5029559;28;20068;-67
2021/03/03 10:06:45;;;;;;;6.63;2.85;;;;;;;14.92;50.99;101897.41;5029745;28;20457;-67
2021/03/03 10:09:13;;;;;;;10.07;4.55;;;;;;;14.87;50.90;101893.78;5029256;28;20041;-67
2021/03/03 10:11:42;;;;;;;11.02;4.38;;;;;;;14.81;50.83;101898.09;5003954;28;20049;-67
2021/03/03 10:14:10;;;;;;;20.40;7.75;;;;;;;14.79;51.32;101908.69;5017931;28;20045;-67
2021/03/03 10:16:37;;;;;;;12.50;3.20;;;;;;;14.83;51.20;101899.03;5027721;28;20069;-67
2021/03/03 10:19:05;;;;;;;10.05;2.70;;;;;;;14.82;51.01;101911.44;5027435;28;20060;-67
2021/03/03 10:21:33;;;;;;;16.33;3.63;;;;;;;14.82;51.35;101906.09;5028969;28;20077;-67
2021/03/03 10:24:14;;;;;;;15.13;4.22;;;;;;;14.87;51.53;101909.72;5010116;28;20766;-68
2021/03/03 10:26:46;;;;;;;15.30;5.43;;;;;;;14.98;51.28;101909.88;5023129;28;20041;-67
2021/03/03 10:29:30;;;;;;;10.88;3.83;;;;;;;14.92;51.28;101904.47;5027763;28;20033;-68
2021/03/03 10:32:07;;;;;;;19.65;5.53;;;;;;;14.74;51.14;101903.31;5025181;28;20136;-67
2021/03/03 10:34:34;;;;;;;13.18;5.03;;;;;;;14.61;51.41;101914.59;5028646;28;20129;-67
2021/03/03 10:37:02;;;;;;;14.95;4.82;;;;;;;14.48;51.87;101906.38;5028051;28;20038;-68
2021/03/03 10:39:30;;;;;;;15.25;3.33;;;;;;;14.39;52.58;101906.19;5027161;28;20033;-67
2021/03/03 10:42:02;;;;;;;13.35;4.05;;;;;;;14.27;53.47;101910.41;5025883;28;20052;-68
2021/03/03 10:44:42;;;;;;;13.65;3.50;;;;;;;14.22;53.54;101906.75;5031145;28;20630;-69
2021/03/03 10:47:10;;;;;;;15.18;4.55;;;;;;;14.15;53.63;101915.47;5028846;28;20042;-68
2021/03/03 10:49:39;;;;;;;16.80;4.88;;;;;;;14.35;53.57;101898.16;5029665;28;20540;-68
2021/03/03 10:52:18;;;;;;;14.82;4.85;;;;;;;14.43;52.96;101908.06;5028874;28;20044;-65
2021/03/03 10:54:46;;;;;;;13.93;4.80;;;;;;;14.32;52.93;101922.00;5029168;28;20033;-67
2021/03/03 10:57:14;;;;;;;22.15;10.05;;;;;;;14.26;53.04;101905.03;5029398;28;20042;-67
2021/03/03 10:59:41;;;;;;;20.88;7.35;;;;;;;14.29;52.58;101913.09;5029908;28;20037;-67
2021/03/03 11:02:09;;;;;;;12.77;3.65;;;;;;;14.31;52.27;101916.66;5028733;28;20033;-67
2021/03/03 11:04:39;;;;;;;10.30;3.47;;;;;;;14.29;52.12;101907.78;5028082;28;20029;-67
2021/03/03 11:07:07;;;;;;;11.13;3.75;;;;;;;14.21;52.29;101917.34;5028134;28;20030;-67
2021/03/03 11:09:35;;;;;;;12.07;3.92;;;;;;;14.12;51.75;101912.75;5028791;28;20034;-67
2021/03/03 11:12:04;;;;;;;12.05;4.85;;;;;;;14.05;51.05;101897.56;5027709;28;20133;-67
2021/03/03 11:14:32;;;;;;;28.50;10.75;;;;;;;14.05;50.92;101902.88;5028814;28;20060;-67
2021/03/03 11:17:02;;;;;;;17.20;4.82;;;;;;;14.23;50.79;101907.66;5027837;28;20072;-67
2021/03/03 11:19:29;;;;;;;8.55;3.25;;;;;;;14.29;50.74;101875.91;5029369;28;20049;-67
2021/03/03 11:21:57;;;;;;;7.22;3.28;;;;;;;14.23;50.26;101908.56;5029306;28;20493;-68
2021/03/03 11:24:25;;;;;;;8.75;3.13;;;;;;;14.29;49.97;101895.41;5026598;28;20042;-67
2021/03/03 11:26:52;;;;;;;10.50;2.85;;;;;;;14.40;49.29;101892.06;5033246;28;20084;-67
2021/03/03 11:29:20;;;;;;;12.50;3.33;;;;;;;14.46;50.02;101890.41;5024496;28;20037;-67
2021/03/03 11:31:47;;;;;;;15.45;2.65;;;;;;;14.43;50.71;101884.16;5028573;28;20565;-67
2021/03/03 11:34:15;;;;;;;8.32;3.30;;;;;;;14.52;50.92;101898.47;5027673;28;20053;-66